Time;durP1;ratioP1;P1;durP2;ratioP2;P2;SDS_P1;SDS_P2;PMS_P1;PMS_P2;Temp;Humidity;BMP_temperature;BMP_pressure;BME280_temperature;BME280_humidity;BME280_pressure;Samples;Min_cycle;Max_cycle;Signal;HPM_P1;HPM_P2
2023/08/10 00:01:23;;;;;;;617.43;281.00;;;;;;;;;;5034926;28;20465;-73
2023/08/10 00:03:51;;;;;;;642.20;249.00;;;;;;;;;;5034819;28;20531;-73
2023/08/10 00:06:18;;;;;;;599.33;302.73;;;;;;;;;;5033981;28;20433;-73
2023/08/10 00:08:52;;;;;;;657.30;246.73;;;;;;;;;;5035426;28;20463;-73
2023/08/10 00:11:19;;;;;;;618.58;282.55;;;;;;;;;;5034157;28;20512;-73
2023/08/10 00:13:47;;;;;;;620.92;294.77;;;;;;;;;;5030408;28;20435;-73
2023/08/10 00:16:14;;;;;;;625.38;301.05;;;;;;;;;;5030875;28;20807;-74
2023/08/10 00:18:41;;;;;;;644.40;296.07;;;;;;;;;;5033845;28;20511;-73
2023/08/10 00:21:08;;;;;;;660.35;307.00;;;;;;;;;;5031248;28;20996;-73
2023/08/10 00:23:35;;;;;;;641.75;346.10;;;;;;;;;;5034010;28;20472;-73
2023/08/10 00:26:03;;;;;;;630.95;339.95;;;;;;;;;;5032542;28;20556;-73
2023/08/10 00:28:33;;;;;;;623.63;335.65;;;;;;;;;;5030436;28;20439;-73
2023/08/10 00:31:00;;;;;;;632.77;319.87;;;;;;;;;;5033016;28;20421;-73
2023/08/10 00:33:27;;;;;;;596.75;294.17;;;;;;;;;;5037391;28;20433;-73
2023/08/10 00:36:06;;;;;;;590.88;288.85;;;;;;;;;;5033926;28;20469;-74
2023/08/10 00:38:38;;;;;;;616.05;295.52;;;;;;;;;;5027006;28;20425;-74
2023/08/10 00:41:05;;;;;;;595.97;300.13;;;;;;;;;;5028426;28;20437;-74
2023/08/10 00:43:33;;;;;;;591.47;297.67;;;;;;;;;;5031846;28;20433;-73
2023/08/10 00:46:00;;;;;;;584.33;284.53;;;;;;;;;;5032077;28;21013;-73
2023/08/10 00:48:28;;;;;;;629.60;266.87;;;;;;;;;;5030294;28;20427;-73
2023/08/10 00:50:55;;;;;;;617.15;285.23;;;;;;;;;;5031327;28;20435;-73
2023/08/10 00:53:22;;;;;;;650.15;273.85;;;;;;;;;;5033606;28;20429;-73
2023/08/10 00:55:51;;;;;;;607.77;312.70;;;;;;;;;;5034289;28;20526;-74
2023/08/10 00:58:19;;;;;;;608.58;276.33;;;;;;;;;;5035373;28;20901;-74
2023/08/10 01:00:50;;;;;;;630.45;308.77;;;;;;;;;;5035654;28;20435;-74
2023/08/10 01:03:17;;;;;;;623.50;305.67;;;;;;;;;;5032223;28;20903;-74
2023/08/10 01:06:02;;;;;;;635.08;336.92;;;;;;;;;;5034680;28;20429;-74
2023/08/10 01:08:32;;;;;;;655.03;325.73;;;;;;;;;;5035704;28;20462;-74
2023/08/10 01:11:02;;;;;;;638.40;323.77;;;;;;;;;;5033363;28;20479;-74
2023/08/10 01:13:47;;;;;;;644.85;294.08;;;;;;;;;;5040392;28;20486;-74
2023/08/10 01:16:19;;;;;;;613.10;302.23;;;;;;;;;;5040663;28;20433;-73
2023/08/10 01:18:51;;;;;;;609.40;288.00;;;;;;;;;;5035586;28;20453;-74
2023/08/10 01:21:37;;;;;;;612.88;287.60;;;;;;;;;;5038522;28;20460;-73
2023/08/10 01:24:11;;;;;;;607.93;284.17;;;;;;;;;;5037575;28;20435;-73
2023/08/10 01:26:39;;;;;;;622.03;312.70;;;;;;;;;;5033227;28;20518;-74
2023/08/10 01:29:06;;;;;;;602.30;272.25;;;;;;;;;;5037610;28;20430;-73
2023/08/10 01:31:33;;;;;;;601.25;266.88;;;;;;;;;;5044225;28;20437;-74
2023/08/10 01:34:02;;;;;;;592.73;276.00;;;;;;;;;;5039320;28;21384;-74
2023/08/10 01:36:30;;;;;;;591.20;282.10;;;;;;;;;;5040120;28;21252;-73
2023/08/10 01:38:57;;;;;;;574.45;253.07;;;;;;;;;;5037819;28;20431;-74
2023/08/10 01:41:24;;;;;;;581.65;268.70;;;;;;;;;;5039212;28;20430;-74
2023/08/10 01:43:51;;;;;;;574.13;261.23;;;;;;;;;;5034947;28;20443;-73
2023/08/10 01:46:20;;;;;;;592.17;297.38;;;;;;;;;;5034320;28;20474;-73
2023/08/10 01:48:49;;;;;;;578.92;283.05;;;;;;;;;;5036897;28;20425;-74
2023/08/10 01:51:23;;;;;;;582.70;274.23;;;;;;;;;;5035700;28;20541;-73
2023/08/10 01:53:51;;;;;;;598.20;287.58;;;;;;;;;;5036210;28;20926;-74
2023/08/10 01:56:19;;;;;;;602.63;288.33;;;;;;;;;;5035504;28;20479;-73
2023/08/10 01:58:46;;;;;;;590.20;292.75;;;;;;;;;;5036758;28;20499;-73
2023/08/10 02:01:13;;;;;;;608.33;264.70;;;;;;;;;;5036774;28;20437;-73
2023/08/10 02:03:41;;;;;;;571.80;267.23;;;;;;;;;;5039474;28;20947;-73
2023/08/10 02:06:08;;;;;;;576.55;273.73;;;;;;;;;;5034042;28;22222;-73
2023/08/10 02:08:35;;;;;;;584.15;282.70;;;;;;;;;;5034481;28;20438;-73
2023/08/10 02:11:02;;;;;;;622.08;319.17;;;;;;;;;;5032684;28;20443;-73
2023/08/10 02:13:30;;;;;;;644.70;297.85;;;;;;;;;;5036373;28;20433;-73
2023/08/10 02:16:00;;;;;;;611.05;293.48;;;;;;;;;;5036788;28;20967;-73
2023/08/10 02:18:27;;;;;;;644.10;313.67;;;;;;;;;;5035304;28;20435;-73
2023/08/10 02:20:54;;;;;;;608.20;310.52;;;;;;;;;;5035240;28;20897;-73
2023/08/10 02:23:21;;;;;;;614.60;318.08;;;;;;;;;;5036210;28;20493;-73
2023/08/10 02:25:49;;;;;;;608.88;295.88;;;;;;;;;;5035083;28;20430;-74
2023/08/10 02:28:16;;;;;;;610.03;282.83;;;;;;;;;;5037591;28;20546;-73
2023/08/10 02:30:46;;;;;;;615.60;291.73;;;;;;;;;;5034622;28;20526;-73
2023/08/10 02:33:13;;;;;;;633.95;303.55;;;;;;;;;;5033675;28;20448;-72
2023/08/10 02:35:40;;;;;;;615.60;290.33;;;;;;;;;;5034203;28;20425;-72
2023/08/10 02:38:08;;;;;;;628.05;307.35;;;;;;;;;;5037438;28;20533;-72
2023/08/10 02:40:35;;;;;;;612.92;301.63;;;;;;;;;;5031838;28;20436;-72
2023/08/10 02:43:02;;;;;;;614.20;300.95;;;;;;;;;;5034232;28;20440;-72
2023/08/10 02:45:29;;;;;;;615.75;313.92;;;;;;;;;;5036848;28;20514;-73
2023/08/10 02:47:57;;;;;;;612.97;299.43;;;;;;;;;;5034364;28;20533;-72
2023/08/10 02:50:24;;;;;;;611.83;307.83;;;;;;;;;;5033000;28;20483;-73
2023/08/10 02:52:51;;;;;;;615.80;304.88;;;;;;;;;;5034483;28;20439;-73
2023/08/10 02:55:18;;;;;;;605.40;302.63;;;;;;;;;;5032179;28;20524;-73
2023/08/10 02:57:45;;;;;;;608.55;309.52;;;;;;;;;;5035478;28;20429;-73
2023/08/10 03:00:13;;;;;;;603.20;315.02;;;;;;;;;;5037309;28;20511;-73
2023/08/10 03:02:40;;;;;;;602.80;321.40;;;;;;;;;;5037873;28;20820;-73
2023/08/10 03:05:08;;;;;;;602.75;315.23;;;;;;;;;;5030910;28;20434;-73
2023/08/10 03:07:36;;;;;;;613.83;331.35;;;;;;;;;;5033775;28;20466;-72
2023/08/10 03:10:03;;;;;;;611.42;321.17;;;;;;;;;;5032433;28;20429;-73
2023/08/10 03:12:30;;;;;;;612.95;317.80;;;;;;;;;;5035317;28;20433;-73
2023/08/10 03:14:57;;;;;;;617.97;357.42;;;;;;;;;;5035157;28;20429;-73
2023/08/10 03:17:25;;;;;;;624.38;364.52;;;;;;;;;;5035174;28;20439;-73
2023/08/10 03:19:52;;;;;;;629.70;372.50;;;;;;;;;;5036036;28;21060;-73
2023/08/10 03:22:19;;;;;;;631.58;373.23;;;;;;;;;;5031292;28;20437;-73
2023/08/10 03:24:49;;;;;;;636.25;384.23;;;;;;;;;;5033308;28;20483;-72
2023/08/10 03:27:16;;;;;;;634.05;378.00;;;;;;;;;;5030178;28;20519;-72
2023/08/10 03:29:43;;;;;;;631.17;368.08;;;;;;;;;;5033816;28;20443;-72
2023/08/10 03:32:10;;;;;;;633.85;374.45;;;;;;;;;;5036510;28;20461;-72
2023/08/10 03:34:37;;;;;;;633.08;370.63;;;;;;;;;;5034251;28;20540;-72
2023/08/10 03:37:07;;;;;;;631.10;371.38;;;;;;;;;;5031424;28;20942;-72
2023/08/10 03:39:35;;;;;;;628.73;366.77;;;;;;;;;;5032575;28;20447;-72
2023/08/10 03:42:02;;;;;;;627.60;371.23;;;;;;;;;;5035829;28;20902;-72
2023/08/10 03:44:30;;;;;;;628.33;375.45;;;;;;;;;;5028617;28;20442;-72
2023/08/10 03:47:00;;;;;;;622.60;362.43;;;;;;;;;;5032857;28;20589;-72
2023/08/10 03:49:27;;;;;;;622.15;368.38;;;;;;;;;;5033844;28;20483;-73
2023/08/10 03:51:54;;;;;;;608.55;339.38;;;;;;;;;;5031945;28;20553;-74
2023/08/10 03:54:21;;;;;;;593.28;323.67;;;;;;;;;;5037158;28;20433;-73
2023/08/10 03:56:49;;;;;;;582.15;310.77;;;;;;;;;;5031694;28;20437;-73
2023/08/10 03:59:16;;;;;;;579.05;306.65;;;;;;;;;;5037547;28;20433;-73
2023/08/10 04:01:43;;;;;;;573.28;299.88;;;;;;;;;;5032772;28;20426;-73
2023/08/10 04:04:10;;;;;;;576.08;308.17;;;;;;;;;;5036222;28;22928;-73
2023/08/10 04:06:37;;;;;;;577.00;307.15;;;;;;;;;;5033663;28;20457;-73
2023/08/10 04:09:09;;;;;;;577.88;307.20;;;;;;;;;;5031878;28;20425;-73
2023/08/10 04:11:37;;;;;;;573.17;306.48;;;;;;;;;;5028798;28;20441;-73
2023/08/10 04:14:04;;;;;;;576.20;307.15;;;;;;;;;;5034594;28;20436;-73
2023/08/10 04:16:31;;;;;;;567.75;292.63;;;;;;;;;;5034833;28;20497;-73
2023/08/10 04:18:58;;;;;;;565.67;287.70;;;;;;;;;;5028376;28;20983;-73
2023/08/10 04:21:26;;;;;;;561.83;285.45;;;;;;;;;;5038294;28;20506;-73
2023/08/10 04:23:53;;;;;;;559.85;285.73;;;;;;;;;;5033263;28;20538;-73
2023/08/10 04:26:20;;;;;;;560.60;283.30;;;;;;;;;;5033565;28;20437;-73
2023/08/10 04:28:47;;;;;;;560.50;281.42;;;;;;;;;;5034674;28;20534;-73
2023/08/10 04:31:14;;;;;;;558.95;280.83;;;;;;;;;;5036391;28;20437;-73
2023/08/10 04:33:42;;;;;;;560.40;286.20;;;;;;;;;;5038630;28;20527;-73
2023/08/10 04:36:09;;;;;;;560.90;287.50;;;;;;;;;;5033882;28;20511;-73
2023/08/10 04:38:36;;;;;;;561.92;282.40;;;;;;;;;;5037581;28;20461;-73
2023/08/10 04:41:03;;;;;;;563.38;288.85;;;;;;;;;;5037726;28;20519;-73
2023/08/10 04:43:30;;;;;;;564.60;287.25;;;;;;;;;;5038487;28;20440;-74
2023/08/10 04:45:57;;;;;;;567.40;294.77;;;;;;;;;;5040226;28;20433;-73
2023/08/10 04:48:25;;;;;;;571.40;308.77;;;;;;;;;;5037789;28;20434;-73
2023/08/10 04:50:53;;;;;;;579.60;318.23;;;;;;;;;;5037022;28;20432;-73
2023/08/10 04:53:21;;;;;;;589.22;338.60;;;;;;;;;;5035761;28;20446;-73
2023/08/10 04:55:48;;;;;;;620.65;362.40;;;;;;;;;;5038741;28;21080;-73
2023/08/10 04:58:15;;;;;;;613.08;375.10;;;;;;;;;;5040394;28;20427;-73
2023/08/10 05:00:43;;;;;;;596.47;335.98;;;;;;;;;;5040224;28;20426;-73
2023/08/10 05:03:10;;;;;;;603.72;353.55;;;;;;;;;;5038499;28;20437;-73
2023/08/10 05:05:40;;;;;;;599.78;347.20;;;;;;;;;;5039170;28;20539;-73
2023/08/10 05:08:07;;;;;;;599.13;343.05;;;;;;;;;;5032114;28;20432;-73
2023/08/10 05:10:34;;;;;;;611.63;358.17;;;;;;;;;;5036011;28;20523;-73
2023/08/10 05:13:01;;;;;;;625.60;377.33;;;;;;;;;;5038075;28;20491;-75
2023/08/10 05:15:29;;;;;;;640.10;397.65;;;;;;;;;;5030987;28;20444;-76
2023/08/10 05:17:56;;;;;;;640.67;385.60;;;;;;;;;;5036498;28;20433;-75
2023/08/10 05:20:24;;;;;;;651.00;403.40;;;;;;;;;;5036206;28;20436;-75
2023/08/10 05:22:52;;;;;;;666.33;428.60;;;;;;;;;;5036116;28;20435;-75
2023/08/10 05:25:19;;;;;;;666.33;404.67;;;;;;;;;;5036135;28;21001;-75
2023/08/10 05:27:46;;;;;;;670.35;405.20;;;;;;;;;;5040234;28;20432;-75
2023/08/10 05:30:16;;;;;;;682.10;422.65;;;;;;;;;;5037178;28;20436;-75
2023/08/10 05:32:46;;;;;;;694.85;428.02;;;;;;;;;;5038505;28;20453;-75
2023/08/10 05:35:15;;;;;;;720.20;487.77;;;;;;;;;;5035113;28;20440;-75
2023/08/10 05:37:42;;;;;;;718.38;444.45;;;;;;;;;;5041294;28;20421;-75
2023/08/10 05:40:11;;;;;;;724.90;461.85;;;;;;;;;;5034092;28;20429;-74
2023/08/10 05:42:40;;;;;;;725.92;456.00;;;;;;;;;;5034250;28;20431;-75
2023/08/10 05:45:08;;;;;;;738.23;473.27;;;;;;;;;;5034565;28;20446;-74
2023/08/10 05:47:36;;;;;;;745.05;477.80;;;;;;;;;;5032335;28;20445;-75
2023/08/10 05:50:04;;;;;;;755.05;487.05;;;;;;;;;;5030445;28;20448;-75
2023/08/10 05:52:31;;;;;;;762.20;498.23;;;;;;;;;;5035292;28;20425;-75
2023/08/10 05:54:58;;;;;;;785.13;505.97;;;;;;;;;;5033942;28;20611;-75
2023/08/10 05:57:25;;;;;;;794.53;517.50;;;;;;;;;;5033371;28;20428;-75
2023/08/10 05:59:53;;;;;;;798.28;522.05;;;;;;;;;;5037196;28;20473;-74
2023/08/10 06:02:21;;;;;;;816.10;568.88;;;;;;;;;;5040201;28;20431;-74
2023/08/10 06:04:49;;;;;;;816.13;572.60;;;;;;;;;;5036483;28;20452;-75
2023/08/10 06:07:16;;;;;;;811.15;556.65;;;;;;;;;;5041004;28;20427;-74
2023/08/10 06:09:44;;;;;;;820.80;574.08;;;;;;;;;;5040899;28;20437;-75
2023/08/10 06:12:12;;;;;;;816.70;562.27;;;;;;;;;;5031958;28;20942;-75
2023/08/10 06:14:39;;;;;;;825.47;579.65;;;;;;;;;;5025728;28;20438;-75
2023/08/10 06:17:06;;;;;;;826.22;582.50;;;;;;;;;;5030629;28;20464;-75
2023/08/10 06:19:34;;;;;;;828.30;581.13;;;;;;;;;;5033974;28;20530;-75
2023/08/10 06:22:01;;;;;;;824.33;573.88;;;;;;;;;;5027451;28;21100;-74
2023/08/10 06:24:30;;;;;;;829.67;590.37;;;;;;;;;;5035474;28;20483;-75
2023/08/10 06:26:59;;;;;;;835.95;600.15;;;;;;;;;;5031284;28;20444;-75
2023/08/10 06:29:26;;;;;;;842.37;605.73;;;;;;;;;;5020337;28;20438;-74
2023/08/10 06:31:54;;;;;;;840.20;602.58;;;;;;;;;;5025057;28;20431;-73
2023/08/10 06:34:22;;;;;;;844.33;607.03;;;;;;;;;;5028317;28;21297;-75
2023/08/10 06:36:49;;;;;;;855.10;621.45;;;;;;;;;;5028341;28;20425;-75
2023/08/10 06:39:18;;;;;;;867.67;652.83;;;;;;;;;;5029963;28;20985;-75
2023/08/10 06:41:45;;;;;;;880.65;664.97;;;;;;;;;;5028903;28;20497;-74
2023/08/10 06:44:13;;;;;;;890.25;684.75;;;;;;;;;;5031328;28;20434;-75
2023/08/10 06:46:40;;;;;;;904.97;713.45;;;;;;;;;;5031345;28;20523;-75
2023/08/10 06:49:07;;;;;;;924.33;752.83;;;;;;;;;;5035606;28;21006;-75
2023/08/10 06:51:35;;;;;;;925.58;759.33;;;;;;;;;;5027503;28;20437;-75
2023/08/10 06:54:02;;;;;;;920.72;747.50;;;;;;;;;;5029369;28;20592;-74
2023/08/10 06:56:29;;;;;;;925.55;766.10;;;;;;;;;;5033315;28;20595;-75
2023/08/10 06:58:56;;;;;;;916.83;750.10;;;;;;;;;;5025993;28;21370;-75
2023/08/10 07:01:26;;;;;;;913.42;746.17;;;;;;;;;;5029957;28;20443;-74
2023/08/10 07:03:53;;;;;;;905.72;723.50;;;;;;;;;;5032161;28;20818;-74
2023/08/10 07:06:21;;;;;;;902.43;726.33;;;;;;;;;;5029069;28;20881;-74
2023/08/10 07:08:52;;;;;;;901.58;720.80;;;;;;;;;;5030234;28;20443;-74
2023/08/10 07:11:20;;;;;;;897.78;710.03;;;;;;;;;;5030445;28;20442;-74
2023/08/10 07:13:48;;;;;;;894.55;702.35;;;;;;;;;;5035304;28;20531;-74
2023/08/10 07:16:16;;;;;;;886.78;684.97;;;;;;;;;;5030721;28;22405;-74
2023/08/10 07:18:44;;;;;;;902.75;707.92;;;;;;;;;;5027608;28;20434;-74
2023/08/10 07:21:11;;;;;;;894.65;693.55;;;;;;;;;;5031673;28;20430;-74
2023/08/10 07:23:38;;;;;;;879.80;673.03;;;;;;;;;;5029360;28;20562;-74
2023/08/10 07:26:05;;;;;;;874.38;660.78;;;;;;;;;;5028966;28;20577;-74
2023/08/10 07:28:32;;;;;;;875.47;660.80;;;;;;;;;;5034018;28;20464;-74
2023/08/10 07:31:00;;;;;;;875.33;663.25;;;;;;;;;;5027590;28;20441;-73
2023/08/10 07:33:27;;;;;;;881.58;661.92;;;;;;;;;;5027818;28;20445;-73
2023/08/10 07:35:54;;;;;;;884.00;667.88;;;;;;;;;;5027001;28;21036;-73
2023/08/10 07:38:24;;;;;;;878.13;661.87;;;;;;;;;;5028767;28;20437;-74
2023/08/10 07:40:52;;;;;;;872.03;652.60;;;;;;;;;;5028290;28;20440;-73
2023/08/10 07:43:22;;;;;;;867.60;648.00;;;;;;;;;;5026652;28;20581;-73
2023/08/10 07:45:49;;;;;;;867.42;642.53;;;;;;;;;;5029352;28;20433;-73
2023/08/10 07:48:16;;;;;;;872.63;646.75;;;;;;;;;;5028041;28;20439;-73
2023/08/10 07:50:43;;;;;;;875.70;656.38;;;;;;;;;;5031118;28;20426;-73
2023/08/10 07:53:10;;;;;;;867.55;643.72;;;;;;;;;;5031144;28;20437;-73
2023/08/10 07:55:37;;;;;;;875.92;661.55;;;;;;;;;;5027392;28;20524;-73
2023/08/10 07:58:05;;;;;;;874.60;662.88;;;;;;;;;;5030202;28;20425;-73
2023/08/10 08:00:38;;;;;;;882.10;677.75;;;;;;;;;;5024168;28;20433;-73
2023/08/10 08:03:05;;;;;;;876.87;666.60;;;;;;;;;;5025638;28;20445;-73
2023/08/10 08:05:37;;;;;;;879.05;675.13;;;;;;;;;;5024618;28;20455;-72
2023/08/10 08:08:06;;;;;;;880.57;674.83;;;;;;;;;;5027475;28;20431;-73
2023/08/10 08:10:34;;;;;;;879.70;672.87;;;;;;;;;;5024437;28;20438;-74
2023/08/10 08:13:06;;;;;;;892.87;694.33;;;;;;;;;;5027108;28;20558;-73
2023/08/10 08:15:38;;;;;;;904.33;717.78;;;;;;;;;;5028155;28;20437;-73
2023/08/10 08:18:24;;;;;;;905.88;721.22;;;;;;;;;;5022895;28;20436;-73
2023/08/10 08:20:51;;;;;;;912.25;732.75;;;;;;;;;;5025686;28;21021;-74
2023/08/10 08:23:19;;;;;;;922.92;748.75;;;;;;;;;;5025985;28;20478;-73
2023/08/10 08:25:46;;;;;;;925.78;756.95;;;;;;;;;;5026958;28;20430;-73
2023/08/10 08:28:13;;;;;;;925.70;754.60;;;;;;;;;;5025241;28;20432;-73
2023/08/10 08:30:40;;;;;;;944.88;788.97;;;;;;;;;;5026229;28;20916;-72
2023/08/10 08:33:09;;;;;;;949.97;798.88;;;;;;;;;;5025771;28;20919;-73
2023/08/10 08:35:37;;;;;;;980.78;854.88;;;;;;;;;;5027167;28;20431;-73
2023/08/10 08:38:06;;;;;;;952.42;806.72;;;;;;;;;;5028636;28;20563;-72
2023/08/10 08:40:33;;;;;;;930.22;767.15;;;;;;;;;;5029300;28;20943;-71
2023/08/10 08:43:02;;;;;;;949.20;801.40;;;;;;;;;;5022592;28;20600;-72
2023/08/10 08:45:30;;;;;;;950.03;808.42;;;;;;;;;;5027658;28;20429;-72
2023/08/10 08:47:58;;;;;;;952.33;807.13;;;;;;;;;;5033358;28;20421;-73
2023/08/10 08:50:28;;;;;;;960.63;821.53;;;;;;;;;;5057182;28;20423;-72
2023/08/10 08:52:59;;;;;;;997.17;878.28;;;;;;;;;;5054612;28;20903;-73
2023/08/10 08:55:26;;;;;;;979.90;851.10;;;;;;;;;;5042164;28;20430;-74
2023/08/10 08:57:53;;;;;;;971.90;838.13;;;;;;;;;;5051092;28;20435;-72
2023/08/10 09:00:21;;;;;;;975.00;846.80;;;;;;;;;;5029716;28;20434;-72
2023/08/10 09:02:51;;;;;;;967.92;838.42;;;;;;;;;;5034026;28;20485;-72
2023/08/10 09:05:19;;;;;;;959.93;821.03;;;;;;;;;;5035738;28;20429;-72
2023/08/10 09:07:46;;;;;;;965.92;834.97;;;;;;;;;;5035492;28;20489;-71
2023/08/10 09:10:13;;;;;;;979.07;847.37;;;;;;;;;;5053881;28;20431;-71
2023/08/10 09:12:41;;;;;;;969.20;831.77;;;;;;;;;;5033151;28;20470;-72
2023/08/10 09:15:09;;;;;;;973.45;834.40;;;;;;;;;;5038825;28;20493;-71
2023/08/10 09:17:37;;;;;;;975.20;832.70;;;;;;;;;;5029811;28;20487;-71
2023/08/10 09:20:08;;;;;;;960.28;816.78;;;;;;;;;;5035876;28;20442;-71
2023/08/10 09:22:37;;;;;;;953.88;801.03;;;;;;;;;;5052099;28;20436;-72
2023/08/10 09:25:07;;;;;;;951.10;795.58;;;;;;;;;;5037766;28;20840;-71
2023/08/10 09:27:35;;;;;;;945.30;790.67;;;;;;;;;;5031530;28;21605;-71
2023/08/10 09:30:06;;;;;;;962.03;820.53;;;;;;;;;;5030800;28;20433;-71
2023/08/10 09:32:34;;;;;;;958.25;813.47;;;;;;;;;;5032308;28;20433;-70
2023/08/10 09:35:01;;;;;;;972.35;831.20;;;;;;;;;;5039794;28;20895;-70
2023/08/10 09:37:31;;;;;;;949.35;798.40;;;;;;;;;;5042715;28;20537;-71
2023/08/10 09:40:06;;;;;;;948.00;798.28;;;;;;;;;;5033378;28;20441;-70
2023/08/10 09:42:34;;;;;;;941.58;782.38;;;;;;;;;;5032255;28;20463;-71
2023/08/10 09:45:05;;;;;;;952.63;806.30;;;;;;;;;;5028899;28;21093;-71
2023/08/10 09:47:36;;;;;;;943.95;789.88;;;;;;;;;;5033994;28;20436;-70
2023/08/10 09:50:05;;;;;;;940.03;782.10;;;;;;;;;;5026279;28;22628;-70
2023/08/10 09:52:34;;;;;;;951.03;802.37;;;;;;;;;;5024664;28;20448;-71
2023/08/10 09:55:02;;;;;;;956.57;811.83;;;;;;;;;;5027797;28;20518;-69
2023/08/10 09:57:29;;;;;;;954.83;810.17;;;;;;;;;;5030043;28;20525;-71
2023/08/10 10:00:04;;;;;;;954.20;810.30;;;;;;;;;;5030396;28;20431;-69
2023/08/10 10:02:31;;;;;;;944.97;797.17;;;;;;;;;;5029980;28;22154;-70
2023/08/10 10:04:58;;;;;;;938.95;780.03;;;;;;;;;;5028486;28;20986;-70
2023/08/10 10:07:27;;;;;;;943.33;788.72;;;;;;;;;;5031087;28;20452;-70
2023/08/10 10:09:59;;;;;;;957.97;816.30;;;;;;;;;;5034271;28;20542;-70
2023/08/10 10:12:26;;;;;;;956.72;805.30;;;;;;;;;;5030435;28;20443;-70
2023/08/10 10:14:54;;;;;;;963.75;829.60;;;;;;;;;;5031789;28;20457;-69
2023/08/10 10:17:22;;;;;;;957.60;814.72;;;;;;;;;;5029656;28;20967;-70
2023/08/10 10:19:51;;;;;;;962.77;824.20;;;;;;;;;;5028378;28;23185;-71
2023/08/10 10:22:20;;;;;;;962.17;826.90;;;;;;;;;;5029473;28;21266;-71
2023/08/10 10:24:49;;;;;;;964.10;827.30;;;;;;;;;;5027486;28;20481;-69
2023/08/10 10:27:16;;;;;;;969.10;842.72;;;;;;;;;;5030789;28;20452;-69
2023/08/10 10:29:49;;;;;;;959.55;819.00;;;;;;;;;;5029201;28;20465;-70
2023/08/10 10:32:18;;;;;;;961.95;823.25;;;;;;;;;;5029694;28;20491;-70
2023/08/10 10:34:46;;;;;;;969.33;836.65;;;;;;;;;;5028333;28;20448;-70
2023/08/10 10:37:21;;;;;;;979.60;860.10;;;;;;;;;;5028065;28;20623;-70
2023/08/10 10:39:50;;;;;;;978.78;860.67;;;;;;;;;;5030266;28;20959;-71
2023/08/10 10:42:22;;;;;;;973.10;853.08;;;;;;;;;;5029647;28;20526;-70
2023/08/10 10:45:01;;;;;;;983.53;864.35;;;;;;;;;;5030864;28;20433;-69
2023/08/10 10:47:38;;;;;;;968.00;839.40;;;;;;;;;;5030521;28;21192;-69
2023/08/10 10:50:29;;;;;;;958.50;823.63;;;;;;;;;;5027904;28;20567;-70
2023/08/10 10:52:58;;;;;;;968.63;841.70;;;;;;;;;;5032520;28;20437;-69
2023/08/10 10:55:27;;;;;;;969.17;839.83;;;;;;;;;;5031763;28;20437;-69
2023/08/10 10:57:54;;;;;;;989.97;880.40;;;;;;;;;;5028923;28;20498;-71
2023/08/10 11:00:24;;;;;;;988.35;878.88;;;;;;;;;;5034611;28;21117;-69
2023/08/10 11:02:52;;;;;;;1010.40;899.92;;;;;;;;;;5047459;28;20426;-70
2023/08/10 11:05:20;;;;;;;1013.97;903.23;;;;;;;;;;5030460;28;20421;-69
2023/08/10 11:07:48;;;;;;;998.60;888.92;;;;;;;;;;5029914;28;21448;-68
2023/08/10 11:10:16;;;;;;;1021.10;909.90;;;;;;;;;;5030421;28;20563;-69
2023/08/10 11:12:44;;;;;;;982.40;870.13;;;;;;;;;;5035004;28;20460;-69
2023/08/10 11:15:12;;;;;;;984.85;875.22;;;;;;;;;;5039183;28;20775;-69
2023/08/10 11:17:43;;;;;;;995.13;885.33;;;;;;;;;;5025472;28;20800;-69
2023/08/10 11:20:17;;;;;;;989.65;880.08;;;;;;;;;;5032693;28;20473;-69
2023/08/10 11:22:51;;;;;;;1016.63;905.67;;;;;;;;;;5034215;28;20425;-69
2023/08/10 11:25:19;;;;;;;1024.68;913.28;;;;;;;;;;5028343;28;20491;-69
2023/08/10 11:27:48;;;;;;;1061.17;947.67;;;;;;;;;;5027623;28;20945;-68
2023/08/10 11:30:16;;;;;;;1040.63;928.20;;;;;;;;;;5029455;28;20499;-69
2023/08/10 11:32:48;;;;;;;1036.00;923.80;;;;;;;;;;5030936;28;20441;-70
2023/08/10 11:35:19;;;;;;;1021.90;910.67;;;;;;;;;;5024209;28;20834;-69
2023/08/10 11:37:46;;;;;;;1023.20;911.35;;;;;;;;;;5026978;28;20976;-69
2023/08/10 11:40:17;;;;;;;1006.50;895.92;;;;;;;;;;5027469;28;20537;-68
2023/08/10 11:42:48;;;;;;;1022.92;911.42;;;;;;;;;;5026014;28;20522;-69
2023/08/10 11:45:23;;;;;;;1026.22;914.42;;;;;;;;;;5029534;28;20430;-68
2023/08/10 11:47:57;;;;;;;1025.37;914.00;;;;;;;;;;5030250;28;20477;-68
2023/08/10 11:50:29;;;;;;;999.33;889.25;;;;;;;;;;5028643;28;20484;-67
2023/08/10 11:53:09;;;;;;;984.67;867.40;;;;;;;;;;5025474;28;20918;-68
2023/08/10 11:55:42;;;;;;;990.75;880.88;;;;;;;;;;5021570;28;20421;-68
2023/08/10 11:58:09;;;;;;;993.50;883.15;;;;;;;;;;5020066;28;20527;-68
2023/08/10 12:00:38;;;;;;;978.78;855.35;;;;;;;;;;5019619;28;20453;-67
2023/08/10 12:03:07;;;;;;;988.55;871.47;;;;;;;;;;5025346;28;20463;-68
2023/08/10 12:05:37;;;;;;;972.38;847.20;;;;;;;;;;5023202;28;21526;-69
2023/08/10 12:08:05;;;;;;;978.65;858.97;;;;;;;;;;5026372;28;20433;-69
2023/08/10 12:10:36;;;;;;;969.55;843.78;;;;;;;;;;5033112;28;20898;-68
2023/08/10 12:13:07;;;;;;;977.73;862.27;;;;;;;;;;5037643;28;20521;-68
2023/08/10 12:15:37;;;;;;;980.03;865.30;;;;;;;;;;5038710;28;20935;-68
2023/08/10 12:18:06;;;;;;;980.50;869.25;;;;;;;;;;5030298;28;21040;-68
2023/08/10 12:20:34;;;;;;;983.22;868.80;;;;;;;;;;5029319;28;20425;-68
2023/08/10 12:23:01;;;;;;;971.30;848.03;;;;;;;;;;5028930;28;21640;-68
2023/08/10 12:25:29;;;;;;;971.45;845.10;;;;;;;;;;5026902;28;20917;-68
2023/08/10 12:27:56;;;;;;;981.85;864.35;;;;;;;;;;5029491;28;20435;-68
2023/08/10 12:30:23;;;;;;;975.75;852.35;;;;;;;;;;5030003;28;20433;-68
2023/08/10 12:32:50;;;;;;;984.15;865.90;;;;;;;;;;5027585;28;20437;-68
2023/08/10 12:35:18;;;;;;;985.22;873.47;;;;;;;;;;5029725;28;20448;-68
2023/08/10 12:37:46;;;;;;;986.10;876.37;;;;;;;;;;5028063;28;20546;-68
2023/08/10 12:40:14;;;;;;;990.30;876.95;;;;;;;;;;5021504;28;20466;-67
2023/08/10 12:42:41;;;;;;;978.80;856.10;;;;;;;;;;5026659;28;20545;-68
2023/08/10 12:45:09;;;;;;;980.03;861.40;;;;;;;;;;5026700;28;20442;-68
2023/08/10 12:47:40;;;;;;;978.35;858.08;;;;;;;;;;5026033;28;20495;-67
2023/08/10 12:50:12;;;;;;;973.97;850.60;;;;;;;;;;5032720;28;21277;-67
2023/08/10 12:52:39;;;;;;;973.13;845.67;;;;;;;;;;5026664;28;20920;-67
2023/08/10 12:55:07;;;;;;;978.25;859.83;;;;;;;;;;5029228;28;20436;-67
2023/08/10 12:57:34;;;;;;;982.72;869.90;;;;;;;;;;5029247;28;20502;-67
2023/08/10 13:00:05;;;;;;;1001.47;891.00;;;;;;;;;;5030849;28;20921;-68
2023/08/10 13:02:37;;;;;;;986.53;872.25;;;;;;;;;;5029537;28;20923;-67
2023/08/10 13:05:05;;;;;;;977.33;860.90;;;;;;;;;;5030158;28;20448;-67
2023/08/10 13:07:32;;;;;;;974.85;855.88;;;;;;;;;;5031305;28;20436;-67
2023/08/10 13:10:00;;;;;;;981.60;871.47;;;;;;;;;;5030271;28;20448;-67
2023/08/10 13:12:30;;;;;;;972.83;855.95;;;;;;;;;;5046056;28;20432;-67
2023/08/10 13:14:58;;;;;;;975.75;859.80;;;;;;;;;;5059272;28;20437;-67
2023/08/10 13:17:29;;;;;;;951.92;819.50;;;;;;;;;;5037228;28;20535;-67
2023/08/10 13:19:59;;;;;;;955.20;824.80;;;;;;;;;;5035106;28;20431;-67
2023/08/10 13:22:27;;;;;;;959.22;830.38;;;;;;;;;;5032063;28;20540;-67
2023/08/10 13:24:55;;;;;;;970.05;850.58;;;;;;;;;;5035036;28;20461;-67
2023/08/10 13:27:22;;;;;;;956.80;826.58;;;;;;;;;;5029552;28;20440;-67
2023/08/10 13:29:50;;;;;;;964.40;843.38;;;;;;;;;;5034214;28;20439;-67
2023/08/10 13:32:21;;;;;;;957.72;827.70;;;;;;;;;;5042228;28;20931;-68
2023/08/10 13:34:48;;;;;;;961.63;837.97;;;;;;;;;;5058405;28;20465;-67
2023/08/10 13:37:16;;;;;;;975.03;862.92;;;;;;;;;;5030647;28;20433;-67
2023/08/10 13:39:43;;;;;;;980.80;870.38;;;;;;;;;;5029936;28;20460;-66
2023/08/10 13:42:11;;;;;;;969.10;848.72;;;;;;;;;;5028928;28;20434;-67
2023/08/10 13:44:41;;;;;;;978.05;862.85;;;;;;;;;;5028317;28;20469;-67
2023/08/10 13:47:08;;;;;;;972.88;855.20;;;;;;;;;;5029555;28;20433;-66
2023/08/10 13:49:38;;;;;;;979.60;866.33;;;;;;;;;;5034988;28;20963;-66
2023/08/10 13:52:08;;;;;;;973.95;856.90;;;;;;;;;;5030501;28;20515;-66
2023/08/10 13:54:37;;;;;;;970.00;851.15;;;;;;;;;;5031085;28;20432;-66
2023/08/10 13:57:07;;;;;;;977.83;863.63;;;;;;;;;;5029486;28;20630;-67
2023/08/10 13:59:34;;;;;;;975.80;860.00;;;;;;;;;;5024441;28;20437;-66